createdAt,value
2022-08-11T05:18:53.477Z,99.90
2022-08-11T05:24:11.488Z,99.90
2022-08-11T05:41:43.161Z,99.90
2022-08-11T05:46:59.840Z,99.90
2022-08-11T05:52:12.843Z,99.90
2022-08-11T05:57:48.861Z,99.90
2022-08-11T06:02:33.789Z,99.90
2022-08-11T06:07:47.248Z,99.90
2022-08-11T06:22:53.086Z,97.70
2022-08-11T06:27:48.995Z,97.40
2022-08-11T06:32:45.774Z,97.90
2022-08-11T06:38:07.648Z,96.40
2022-08-11T06:43:09.211Z,95.70
2022-08-11T06:48:03.603Z,95.70
2022-08-11T07:03:27.222Z,93.50
2022-08-11T07:09:07.604Z,93.00
2022-08-11T07:14:21.108Z,93.30
2022-08-11T07:19:36.777Z,93.00
2022-08-11T07:24:59.593Z,92.70
2022-08-11T07:41:36.409Z,90.90
2022-08-11T07:46:52.624Z,89.60
2022-08-11T07:52:03.973Z,88.00
2022-08-11T07:57:09.294Z,88.00
2022-08-11T08:13:39.390Z,86.80
2022-08-11T08:18:36.003Z,84.60
2022-08-11T08:23:34.559Z,87.10
2022-08-11T08:28:32.646Z,84.00
2022-08-11T08:45:27.496Z,82.50
2022-08-11T08:50:46.806Z,79.30
2022-08-11T08:55:45.539Z,79.80
2022-08-11T09:00:47.156Z,78.60
2022-08-11T09:05:41.966Z,80.40
2022-08-11T09:10:37.096Z,79.20
2022-08-11T09:15:31.613Z,77.00
2022-08-11T09:20:29.485Z,77.50
2022-08-11T09:25:44.235Z,77.00
2022-08-11T09:30:41.995Z,75.00
2022-08-11T09:35:39.727Z,74.50
2022-08-11T09:40:34.113Z,71.40
2022-08-11T09:45:29.183Z,74.30
2022-08-11T09:50:35.254Z,74.20
2022-08-11T09:55:30.612Z,72.00
2022-08-11T10:00:30.935Z,69.10
2022-08-11T10:05:39.701Z,68.60
2022-08-11T10:10:38.132Z,67.60
2022-08-11T10:15:38.472Z,68.00
2022-08-11T10:20:35.467Z,66.50
2022-08-11T10:25:52.090Z,67.30
2022-08-11T10:31:06.696Z,67.30
2022-08-11T10:36:01.711Z,64.10
2022-08-11T10:41:10.428Z,62.60
2022-08-11T10:46:30.404Z,60.50
2022-08-11T10:51:51.250Z,58.60
2022-08-11T10:57:04.943Z,58.40
2022-08-11T11:02:02.259Z,58.10
2022-08-11T11:07:04.755Z,56.00
2022-08-11T11:12:19.483Z,56.50
2022-08-11T11:17:32.630Z,54.00
2022-08-11T11:22:40.899Z,52.50
2022-08-11T11:27:46.431Z,51.80
2022-08-11T11:32:56.463Z,52.00
2022-08-11T11:38:03.756Z,51.90
2022-08-11T11:42:59.587Z,50.90
2022-08-11T11:47:59.830Z,50.20
2022-08-11T11:52:55.493Z,50.70
2022-08-11T11:58:06.559Z,50.60
2022-08-11T12:03:04.003Z,50.10
2022-08-11T12:08:19.041Z,48.80
2022-08-11T12:13:31.414Z,48.30
2022-08-11T12:18:26.886Z,47.50
2022-08-11T12:23:38.153Z,48.00
2022-08-11T12:28:32.627Z,47.70
2022-08-11T12:33:28.806Z,46.30
2022-08-11T12:38:26.050Z,47.10
2022-08-11T12:43:43.211Z,45.70
2022-08-11T12:49:03.555Z,47.30
2022-08-11T12:54:02.526Z,45.60
2022-08-11T12:59:15.322Z,45.10
2022-08-11T13:04:28.563Z,45.00
2022-08-11T13:09:22.435Z,44.90
2022-08-11T13:14:17.582Z,43.50
2022-08-11T13:19:13.290Z,42.60
2022-08-11T13:24:07.758Z,43.80
2022-08-11T13:29:01.582Z,43.70
2022-08-11T13:33:55.573Z,42.60
2022-08-11T13:38:51.886Z,43.80
2022-08-11T13:43:45.694Z,43.20
2022-08-11T13:48:39.816Z,42.40
2022-08-11T13:53:34.311Z,42.50
2022-08-11T13:58:38.896Z,41.60
2022-08-11T14:04:31.382Z,41.30
2022-08-11T14:08:51.083Z,41.20
2022-08-11T14:13:47.973Z,40.60
2022-08-11T14:18:46.023Z,41.60
2022-08-11T14:23:42.556Z,40.90
2022-08-11T14:28:43.724Z,39.80
2022-08-11T14:33:59.321Z,42.20
2022-08-11T14:38:56.667Z,41.00
2022-08-11T14:44:13.679Z,40.90
2022-08-11T14:49:09.682Z,41.40
2022-08-11T14:54:17.554Z,40.10
2022-08-11T14:59:12.919Z,40.20
2022-08-11T15:04:35.348Z,40.10
2022-08-11T15:09:32.335Z,39.60
2022-08-11T15:14:41.467Z,39.10
2022-08-11T15:19:40.971Z,39.30
2022-08-11T15:24:39.539Z,39.20
2022-08-11T15:29:54.096Z,39.50
2022-08-11T15:35:08.772Z,40.10
2022-08-11T15:40:31.328Z,41.30
2022-08-11T15:45:45.120Z,42.20
2022-08-11T15:50:45.695Z,43.60
2022-08-11T15:55:43.695Z,44.90
2022-08-11T16:01:03.682Z,44.70
2022-08-11T16:05:58.555Z,45.30
2022-08-11T16:10:57.399Z,45.80
2022-08-11T16:16:12.098Z,46.20
2022-08-11T16:21:06.322Z,46.20
2022-08-11T16:27:08.534Z,47.00
2022-08-11T16:31:17.903Z,48.00
2022-08-11T16:36:29.362Z,47.40
2022-08-11T16:41:45.211Z,47.50
2022-08-11T16:46:56.334Z,48.40
2022-08-11T16:51:50.045Z,49.50
2022-08-11T16:56:48.145Z,50.40
2022-08-11T17:01:44.920Z,51.30
2022-08-11T17:07:00.307Z,52.00
2022-08-11T17:12:16.831Z,52.30
2022-08-11T17:17:15.704Z,51.20
2022-08-11T17:22:26.767Z,52.40
2022-08-11T17:27:24.708Z,53.80
2022-08-11T17:32:55.558Z,53.70
2022-08-11T17:37:51.969Z,54.10
2022-08-11T17:43:05.840Z,54.90
2022-08-11T17:48:18.043Z,55.60
2022-08-11T17:53:31.319Z,56.30
2022-08-11T17:58:44.349Z,55.90
2022-08-11T18:03:40.087Z,56.40
2022-08-11T18:08:53.539Z,56.70
2022-08-11T18:14:09.275Z,56.50
2022-08-11T18:19:20.483Z,57.00
2022-08-11T18:24:33.542Z,57.30
2022-08-11T18:29:46.800Z,57.80
2022-08-11T18:35:00.862Z,58.70
2022-08-11T18:40:17.909Z,59.60
2022-08-11T18:45:45.294Z,60.20
2022-08-11T18:51:31.520Z,61.80
2022-08-11T18:56:31.363Z,62.50
2022-08-11T19:01:46.194Z,62.30
2022-08-11T19:06:58.517Z,64.00
2022-08-11T19:12:11.247Z,65.70
2022-08-11T19:17:44.022Z,66.50
2022-08-11T19:22:57.123Z,65.50
2022-08-11T19:28:09.185Z,65.70
2022-08-11T19:33:59.904Z,67.30
2022-08-11T19:38:55.732Z,66.50
2022-08-11T19:44:08.115Z,66.60
2022-08-11T19:49:21.501Z,67.40
2022-08-11T19:54:33.778Z,68.50
2022-08-11T19:59:45.467Z,70.50
2022-08-11T20:04:58.464Z,69.90
2022-08-11T20:10:10.575Z,71.00
2022-08-11T20:15:22.562Z,73.60
2022-08-11T20:20:36.334Z,74.70
2022-08-11T20:25:48.550Z,75.70
2022-08-11T20:31:02.633Z,74.70
2022-08-11T20:36:15.416Z,75.00
2022-08-11T20:41:29.026Z,74.60
